Kidder, South Dakota
Current Conditions -  °F | °C
As of 6:35 AM on Tuesday 27 Jan 2015 (Local Time) from KGWR Reporting Station
Overcast Overcast  
Wind Chill: 22°   Ceiling: 100
Heat Index: 28°   Visibility: 0.5mi
Dew Point: 28°   Wind: 6mph
Humidity: 100%   Direction: 130°SE
Pressure: 30.04"   Gusts: NA
Location:  45.8144°N, 97.7089°W
Report Text: KGWR 271235Z AUTO 13005KT 1/2SM OVC001 M02/M02 A3004 RMK A01 P000
Loading
Personal Weather Stations






























Interactive Weather Map New forecast layout! Learn more

10-Day Weather Forecast

Advertisements
Track Severe Weather on mobile